MST,Max TemperatureF,Mean TemperatureF,Min TemperatureF,Max Dew PointF,MeanDew PointF,Min DewpointF,Max Humidity, Mean Humidity, Min Humidity, Max Sea Level PressureIn, Mean Sea Level PressureIn, Min Sea Level PressureIn, Max VisibilityMiles, Mean VisibilityMiles, Min VisibilityMiles, Max Wind SpeedMPH, Mean Wind SpeedMPH, Max Gust SpeedMPH,PrecipitationIn, CloudCover, Events, WindDirDegrees
2014-2-1,59,48,37,35,30,26,68,50,33,29.93,29.86,29.81,10,10,10,22,10,32,0.00,1,,263
2014-2-2,53,42,32,30,24,16,77,48,26,30.09,30.01,29.92,10,10,10,15,6,31,0.00,2,,258
2014-2-3,60,44,27,32,24,4,90,51,16,29.99,29.85,29.72,10,10,10,24,6,34,0.00,1,,218
2014-2-4,50,40,31,30,21,15,85,50,25,30.06,29.96,29.84,10,10,10,28,15,36,0.00,1,,264
2014-2-5,45,35,25,22,18,13,62,50,37,30.16,30.08,30.01,10,10,10,20,8,26,0.00,4,,117
2014-2-6,39,30,20,17,15,13,71,54,40,30.21,30.10,30.00,10,10,10,15,9,18,0.00,4,,142
2014-2-7,57,44,31,28,23,15,72,44,28,30.13,30.07,30.00,10,10,10,28,9,33,0.00,3,,253
2014-2-8,66,49,32,27,22,17,68,40,18,30.23,30.16,30.11,10,10,10,16,9,23,0.00,0,,259
2014-2-9,72,55,38,31,24,16,44,30,20,30.18,30.08,29.98,10,10,10,31,9,40,0.00,0,,261
2014-2-10,71,57,43,28,25,19,52,30,15,30.07,29.98,29.88,10,10,7,34,13,44,0.00,0,,274
2014-2-11,57,46,34,29,25,22,65,44,29,30.14,30.06,29.94,10,10,10,14,8,20,0.00,1,,186
2014-2-12,65,46,27,25,16,8,71,35,11,30.27,30.14,30.07,10,10,10,14,3,,0.00,0,,264
2014-2-13,74,55,36,20,16,8,37,21,13,30.16,30.07,30.00,10,10,10,15,7,17,0.00,0,,305
2014-2-14,77,60,43,21,19,16,36,21,12,30.17,30.09,30.03,10,10,10,14,8,20,0.00,0,,280
2014-2-15,81,60,40,19,15,9,36,19,7,30.19,30.12,30.06,10,10,10,26,7,33,0.00,0,,267
2014-2-16,79,64,48,16,13,9,23,15,8,30.14,30.09,30.03,10,10,10,25,10,34,0.00,0,,258
2014-2-17,71,58,44,18,13,8,24,17,11,30.24,30.16,30.12,10,10,10,14,8,17,0.00,0,,209
2014-2-18,77,56,36,18,13,7,30,18,10,30.13,30.05,29.99,10,10,10,22,6,30,0.00,0,,270
2014-2-19,74,58,43,17,13,9,27,17,10,30.01,29.91,29.82,10,10,10,25,11,33,0.00,0,,258
2014-2-20,62,48,33,13,5,-11,23,15,9,30.12,30.03,29.84,10,10,10,26,13,32,0.00,0,,329
2014-2-21,69,49,29,6,-1,-10,18,13,8,30.13,30.05,29.95,10,10,10,24,7,30,0.00,0,,288
2014-2-22,71,54,38,8,6,0,22,15,8,30.04,29.98,29.90,10,10,10,24,10,32,0.00,0,,273
2014-2-23,71,57,43,12,9,6,22,14,10,30.14,30.07,30.01,10,10,10,14,9,22,0.00,1,,259
2014-2-24,72,60,47,23,17,10,29,19,13,30.16,30.08,30.03,10,10,10,13,6,17,0.00,1,,259
2014-2-25,71,60,50,32,21,15,40,23,15,30.12,30.05,29.98,10,10,4,18,8,25,0.00,2,,267
2014-2-26,67,58,49,35,31,23,51,37,24,30.11,30.02,29.95,10,10,10,15,11,20,0.00,5,,198
2014-2-27,71,58,44,31,27,23,46,30,17,30.03,29.94,29.82,10,10,10,32,14,44,0.00,0,,262
2014-2-28,73,59,45,33,29,23,60,33,16,30.03,29.95,29.87,10,10,10,30,14,38,0.00,0,,264